Desborough, United Kingdom
Current Conditions -  °F | °C
As of 12:50 PM on Saturday 25 Oct 2014 (Local Time) from EGXT Reporting Station
Broken Clouds Broken Clouds  
Wind Chill: 57°   Ceiling: 4700
Heat Index: 57°   Visibility: 6mi
Dew Point: 48°   Wind: 16mph
Humidity: 72%   Direction: 230°SW
Pressure: 30"   Gusts: NA
Location:  52.44°N, 0.82°W
Report Text: EGXT 251150Z AUTO 23014KT 9999 // FEW018/// BKN047/// 14/09 Q1016
Loading
Personal Weather Stations






























Interactive Weather Map
Tropical Storm Tracking
New forecast layout! Learn more

10-Day Weather Forecast

Advertisements
Track Severe Weather on mobile